Time;durP1;ratioP1;P1;durP2;ratioP2;P2;SDS_P1;SDS_P2;PMS_P1;PMS_P2;Temp;Humidity;BMP_temperature;BMP_pressure;BME280_temperature;BME280_humidity;BME280_pressure;Samples;Min_cycle;Max_cycle;Signal;HPM_P1;HPM_P2
2022/04/11 00:00:50;;;;;;;4.22;3.40;;;;;;;;;;5104694;28;20375;-68
2022/04/11 00:03:17;;;;;;;3.88;3.58;;;;;;;;;;5104692;28;20200;-68
2022/04/11 00:05:44;;;;;;;5.20;4.47;;;;;;;;;;5104294;28;20538;-68
2022/04/11 00:08:10;;;;;;;4.07;3.72;;;;;;;;;;5104131;28;20227;-68
2022/04/11 00:10:37;;;;;;;9.35;4.53;;;;;;;;;;5104722;28;20199;-68
2022/04/11 00:13:03;;;;;;;5.32;4.22;;;;;;;;;;5104787;28;20203;-68
2022/04/11 00:15:30;;;;;;;4.88;4.45;;;;;;;;;;5104444;28;20204;-68
2022/04/11 00:17:56;;;;;;;6.00;4.07;;;;;;;;;;5104306;28;20533;-68
2022/04/11 00:20:22;;;;;;;4.97;3.92;;;;;;;;;;5104284;28;20204;-68
2022/04/11 00:22:50;;;;;;;4.65;4.25;;;;;;;;;;5104267;28;20542;-68
2022/04/11 00:25:16;;;;;;;6.97;4.80;;;;;;;;;;5104512;28;20196;-68
2022/04/11 00:27:42;;;;;;;4.57;4.25;;;;;;;;;;5103794;28;20215;-68
2022/04/11 00:30:09;;;;;;;5.55;4.40;;;;;;;;;;5104157;28;20196;-68
2022/04/11 00:32:39;;;;;;;4.28;3.88;;;;;;;;;;5104148;28;20203;-68
2022/04/11 00:35:07;;;;;;;4.82;4.18;;;;;;;;;;5104057;28;20210;-68
2022/04/11 00:37:33;;;;;;;5.15;4.47;;;;;;;;;;5103649;28;20227;-68
2022/04/11 00:40:01;;;;;;;4.70;4.20;;;;;;;;;;5104104;28;20195;-68
2022/04/11 00:42:27;;;;;;;4.50;4.07;;;;;;;;;;5104049;28;20203;-68
2022/04/11 00:44:54;;;;;;;4.28;3.97;;;;;;;;;;5104014;28;20200;-68
2022/04/11 00:47:20;;;;;;;4.90;4.53;;;;;;;;;;5103549;28;20196;-68
2022/04/11 00:49:47;;;;;;;5.00;4.35;;;;;;;;;;5103717;28;20200;-68
2022/04/11 00:52:14;;;;;;;6.50;4.15;;;;;;;;;;5103826;28;20520;-68
2022/04/11 00:54:42;;;;;;;4.32;3.20;;;;;;;;;;5103607;28;20203;-68
2022/04/11 00:57:10;;;;;;;3.95;3.50;;;;;;;;;;5103557;28;20195;-68
2022/04/11 00:59:36;;;;;;;4.10;3.80;;;;;;;;;;5103803;28;20247;-68
2022/04/11 01:02:05;;;;;;;5.20;3.90;;;;;;;;;;5103498;28;20196;-68
2022/04/11 01:04:31;;;;;;;5.63;4.22;;;;;;;;;;5103342;28;20202;-68
2022/04/11 01:06:58;;;;;;;5.70;4.10;;;;;;;;;;5103295;28;20224;-68
2022/04/11 01:09:24;;;;;;;4.55;4.15;;;;;;;;;;5103427;28;20224;-68
2022/04/11 01:11:51;;;;;;;5.70;4.47;;;;;;;;;;5103470;28;20200;-68
2022/04/11 01:14:18;;;;;;;4.93;4.45;;;;;;;;;;5103385;28;20203;-68
2022/04/11 01:16:48;;;;;;;4.15;3.92;;;;;;;;;;5102900;28;20241;-68
2022/04/11 01:19:14;;;;;;;5.05;4.65;;;;;;;;;;5102773;28;20191;-68
2022/04/11 01:21:42;;;;;;;4.95;4.45;;;;;;;;;;5103251;28;20202;-68
2022/04/11 01:24:08;;;;;;;4.68;3.90;;;;;;;;;;5103129;28;20195;-68
2022/04/11 01:26:36;;;;;;;4.78;4.43;;;;;;;;;;5102806;28;20195;-68
2022/04/11 01:29:04;;;;;;;4.45;4.15;;;;;;;;;;5102999;28;20249;-68
2022/04/11 01:31:30;;;;;;;5.25;4.50;;;;;;;;;;5102930;28;20203;-68
2022/04/11 01:33:56;;;;;;;7.10;4.97;;;;;;;;;;5103230;28;20207;-68
2022/04/11 01:36:23;;;;;;;10.45;4.93;;;;;;;;;;5102889;28;20204;-68
2022/04/11 01:38:50;;;;;;;5.45;5.03;;;;;;;;;;5102425;28;20199;-68
2022/04/11 01:41:16;;;;;;;7.05;5.25;;;;;;;;;;5103093;28;20268;-68
2022/04/11 01:43:45;;;;;;;7.35;4.68;;;;;;;;;;5102934;28;20200;-68
2022/04/11 01:46:11;;;;;;;5.57;4.30;;;;;;;;;;5102703;28;20550;-68
2022/04/11 01:48:37;;;;;;;5.55;4.78;;;;;;;;;;5102706;28;20242;-68
2022/04/11 01:51:04;;;;;;;4.90;4.18;;;;;;;;;;5103128;28;20207;-68
2022/04/11 01:53:30;;;;;;;5.05;4.38;;;;;;;;;;5102624;28;20207;-68
2022/04/11 01:55:57;;;;;;;5.90;4.10;;;;;;;;;;5102805;28;20240;-68
2022/04/11 01:58:24;;;;;;;5.28;4.78;;;;;;;;;;5102736;28;20196;-68
2022/04/11 02:00:50;;;;;;;6.10;4.90;;;;;;;;;;5102606;28;20556;-68
2022/04/11 02:03:17;;;;;;;5.00;4.60;;;;;;;;;;5102578;28;20202;-68
2022/04/11 02:05:43;;;;;;;5.65;5.10;;;;;;;;;;5102405;28;20229;-68
2022/04/11 02:08:10;;;;;;;8.32;5.50;;;;;;;;;;5102708;28;20215;-68
2022/04/11 02:10:36;;;;;;;6.07;5.57;;;;;;;;;;5102701;28;20520;-68
2022/04/11 02:13:04;;;;;;;5.68;5.20;;;;;;;;;;5102484;28;20212;-68
2022/04/11 02:15:30;;;;;;;5.30;4.82;;;;;;;;;;5102545;28;20204;-68
2022/04/11 02:17:57;;;;;;;5.40;5.00;;;;;;;;;;5102248;28;20204;-68
2022/04/11 02:20:23;;;;;;;6.35;5.82;;;;;;;;;;5102284;28;20195;-68
2022/04/11 02:22:50;;;;;;;8.15;5.53;;;;;;;;;;5102375;28;20196;-68
2022/04/11 02:25:17;;;;;;;9.15;5.55;;;;;;;;;;5102571;28;20203;-68
2022/04/11 02:27:44;;;;;;;5.65;5.10;;;;;;;;;;5102306;28;20210;-68
2022/04/11 02:30:12;;;;;;;6.05;5.47;;;;;;;;;;5105553;28;20223;-68
2022/04/11 02:32:39;;;;;;;6.80;5.57;;;;;;;;;;5106460;28;20375;-68
2022/04/11 02:35:05;;;;;;;11.40;6.00;;;;;;;;;;5106298;28;20207;-68
2022/04/11 02:37:33;;;;;;;6.10;5.68;;;;;;;;;;5106191;28;20195;-68
2022/04/11 02:39:59;;;;;;;6.47;5.82;;;;;;;;;;5106088;28;20267;-68
2022/04/11 02:42:26;;;;;;;10.70;6.20;;;;;;;;;;5106296;28;20200;-68
2022/04/11 02:44:53;;;;;;;7.35;6.10;;;;;;;;;;5106298;28;20200;-68
2022/04/11 02:47:20;;;;;;;6.57;5.97;;;;;;;;;;5105863;28;20503;-68
2022/04/11 02:49:47;;;;;;;6.40;5.80;;;;;;;;;;5105880;28;20283;-68
2022/04/11 02:52:14;;;;;;;5.85;5.35;;;;;;;;;;5106301;28;20195;-68
2022/04/11 02:54:40;;;;;;;8.80;5.68;;;;;;;;;;5106264;28;20195;-68
2022/04/11 02:57:07;;;;;;;7.85;5.72;;;;;;;;;;5105645;28;20439;-68
2022/04/11 02:59:33;;;;;;;7.75;5.55;;;;;;;;;;5105813;28;20199;-68
2022/04/11 03:02:00;;;;;;;8.50;5.82;;;;;;;;;;5105861;28;20200;-68
2022/04/11 03:04:27;;;;;;;6.60;5.63;;;;;;;;;;5105706;28;20204;-68
2022/04/11 03:06:54;;;;;;;7.07;5.20;;;;;;;;;;5105704;28;20233;-68
2022/04/11 03:09:20;;;;;;;5.85;5.45;;;;;;;;;;5105559;28;20215;-68
2022/04/11 03:11:47;;;;;;;6.20;5.65;;;;;;;;;;5105731;28;20241;-68
2022/04/11 03:14:13;;;;;;;6.50;5.38;;;;;;;;;;5105614;28;20437;-68
2022/04/11 03:16:40;;;;;;;6.63;5.50;;;;;;;;;;5105266;28;20196;-68
2022/04/11 03:19:07;;;;;;;9.93;6.10;;;;;;;;;;5105595;28;20438;-68
2022/04/11 03:21:34;;;;;;;7.20;6.18;;;;;;;;;;5105714;28;20238;-68
2022/04/11 03:24:00;;;;;;;9.02;5.50;;;;;;;;;;5105463;28;20198;-68
2022/04/11 03:26:27;;;;;;;7.78;5.35;;;;;;;;;;5105274;28;20199;-68
2022/04/11 03:28:53;;;;;;;7.05;5.82;;;;;;;;;;5105228;28;20212;-68
2022/04/11 03:31:19;;;;;;;5.40;5.00;;;;;;;;;;5105185;28;20200;-68
2022/04/11 03:33:45;;;;;;;7.30;5.40;;;;;;;;;;5105418;28;20249;-68
2022/04/11 03:36:12;;;;;;;6.20;5.60;;;;;;;;;;5105140;28;20218;-68
2022/04/11 03:38:39;;;;;;;6.63;6.00;;;;;;;;;;5105251;28;20199;-68
2022/04/11 03:41:05;;;;;;;6.50;5.80;;;;;;;;;;5104558;28;20196;-68
2022/04/11 03:43:32;;;;;;;6.45;5.72;;;;;;;;;;5105083;28;20503;-68
2022/04/11 03:45:58;;;;;;;6.93;5.43;;;;;;;;;;5104797;28;20203;-68
2022/04/11 03:48:24;;;;;;;8.02;5.38;;;;;;;;;;5104971;28;20557;-68
2022/04/11 03:50:51;;;;;;;6.00;5.40;;;;;;;;;;5105129;28;20199;-68
2022/04/11 03:53:17;;;;;;;9.27;6.00;;;;;;;;;;5105125;28;20196;-68
2022/04/11 03:55:45;;;;;;;9.65;5.65;;;;;;;;;;5105126;28;20266;-68
2022/04/11 03:58:11;;;;;;;7.70;5.63;;;;;;;;;;5104555;28;20359;-68
2022/04/11 04:00:37;;;;;;;6.18;5.68;;;;;;;;;;5104516;28;20207;-68
2022/04/11 04:03:07;;;;;;;12.15;5.95;;;;;;;;;;5104714;28;20203;-68
2022/04/11 04:05:34;;;;;;;7.18;5.82;;;;;;;;;;5104660;28;20446;-68
2022/04/11 04:08:00;;;;;;;6.55;6.05;;;;;;;;;;5104439;28;20203;-68
2022/04/11 04:10:26;;;;;;;6.97;6.28;;;;;;;;;;5104605;28;20215;-68
2022/04/11 04:12:58;;;;;;;6.38;5.88;;;;;;;;;;5104421;28;20209;-68
2022/04/11 04:15:24;;;;;;;9.15;7.68;;;;;;;;;;5104382;28;20195;-68
2022/04/11 04:17:52;;;;;;;8.18;7.10;;;;;;;;;;5104373;28;20199;-68
2022/04/11 04:20:18;;;;;;;8.38;7.30;;;;;;;;;;5104500;28;20407;-68
2022/04/11 04:22:44;;;;;;;7.70;6.93;;;;;;;;;;5104398;28;20195;-68
2022/04/11 04:25:11;;;;;;;7.30;6.32;;;;;;;;;;5104178;28;20199;-67
2022/04/11 04:27:37;;;;;;;8.73;7.18;;;;;;;;;;5103916;28;20385;-67
2022/04/11 04:30:05;;;;;;;6.75;6.18;;;;;;;;;;5104250;28;20408;-67
2022/04/11 04:32:32;;;;;;;10.68;6.22;;;;;;;;;;5104082;28;20195;-67
2022/04/11 04:34:58;;;;;;;6.35;5.75;;;;;;;;;;5104087;28;20208;-67
2022/04/11 04:37:24;;;;;;;5.85;5.32;;;;;;;;;;5103926;28;20195;-67
2022/04/11 04:39:50;;;;;;;7.07;5.68;;;;;;;;;;5103947;28;20406;-67
2022/04/11 04:42:20;;;;;;;5.75;5.30;;;;;;;;;;5103839;28;20233;-67
2022/04/11 04:44:46;;;;;;;6.78;6.18;;;;;;;;;;5104028;28;20518;-67
2022/04/11 04:47:15;;;;;;;7.05;6.35;;;;;;;;;;5103661;28;20196;-67
2022/04/11 04:49:41;;;;;;;7.28;6.60;;;;;;;;;;5103737;28;20286;-67
2022/04/11 04:52:08;;;;;;;8.80;6.63;;;;;;;;;;5103007;28;20210;-67
2022/04/11 04:54:34;;;;;;;7.90;6.47;;;;;;;;;;5103371;28;20203;-67
2022/04/11 04:57:01;;;;;;;7.07;6.22;;;;;;;;;;5103525;28;20208;-67
2022/04/11 04:59:27;;;;;;;9.18;7.40;;;;;;;;;;5103752;28;20196;-67
2022/04/11 05:01:55;;;;;;;10.15;6.97;;;;;;;;;;5103644;28;20433;-67
2022/04/11 05:04:23;;;;;;;7.28;6.60;;;;;;;;;;5103392;28;20196;-67
2022/04/11 05:06:49;;;;;;;7.85;6.78;;;;;;;;;;5103308;28;20216;-68
2022/04/11 05:09:15;;;;;;;7.53;6.88;;;;;;;;;;5103311;28;20235;-67
2022/04/11 05:11:42;;;;;;;9.40;7.05;;;;;;;;;;5103559;28;20199;-67
2022/04/11 05:14:08;;;;;;;7.28;6.57;;;;;;;;;;5103634;28;20203;-67
2022/04/11 05:16:34;;;;;;;7.10;6.50;;;;;;;;;;5103243;28;20199;-67
2022/04/11 05:19:02;;;;;;;8.52;6.82;;;;;;;;;;5103237;28;20195;-67
2022/04/11 05:21:30;;;;;;;6.88;6.13;;;;;;;;;;5103226;28;20204;-67
2022/04/11 05:23:56;;;;;;;7.57;6.38;;;;;;;;;;5103033;28;20203;-67
2022/04/11 05:26:22;;;;;;;7.30;6.50;;;;;;;;;;5103134;28;20424;-67
2022/04/11 05:28:49;;;;;;;8.95;6.78;;;;;;;;;;5102936;28;20195;-67
2022/04/11 05:31:16;;;;;;;8.13;6.57;;;;;;;;;;5103067;28;20271;-67
2022/04/11 05:33:42;;;;;;;9.25;6.75;;;;;;;;;;5102991;28;20210;-67
2022/04/11 05:36:08;;;;;;;10.02;7.03;;;;;;;;;;5102816;28;20441;-67
2022/04/11 05:38:36;;;;;;;7.55;6.60;;;;;;;;;;5102898;28;20202;-67
2022/04/11 05:41:02;;;;;;;6.88;6.28;;;;;;;;;;5102505;28;20196;-67
2022/04/11 05:43:28;;;;;;;7.90;6.85;;;;;;;;;;5102602;28;20499;-67
2022/04/11 05:45:55;;;;;;;6.85;6.10;;;;;;;;;;5101891;28;20191;-67
2022/04/11 05:48:21;;;;;;;7.97;6.47;;;;;;;;;;5102055;28;20381;-67
2022/04/11 05:50:47;;;;;;;7.22;6.57;;;;;;;;;;5102129;28;20219;-70
2022/04/11 05:53:14;;;;;;;8.18;6.95;;;;;;;;;;5102060;28;20651;-63
2022/04/11 05:55:41;;;;;;;7.13;6.47;;;;;;;;;;5091308;28;20475;-61
2022/04/11 05:58:07;;;;;;;9.02;7.18;;;;;;;;;;5090164;28;20232;-61
2022/04/11 06:00:34;;;;;;;7.38;6.68;;;;;;;;;;5095636;28;20256;-61
2022/04/11 06:03:00;;;;;;;9.90;6.82;;;;;;;;;;5096084;28;20208;-61
2022/04/11 06:05:26;;;;;;;9.60;7.10;;;;;;;;;;5095782;28;20223;-61
2022/04/11 06:07:52;;;;;;;9.25;8.25;;;;;;;;;;5096004;28;20216;-62
2022/04/11 06:10:19;;;;;;;9.45;7.35;;;;;;;;;;5091693;28;20247;-62
2022/04/11 06:12:46;;;;;;;11.95;8.20;;;;;;;;;;5091779;28;20218;-63
2022/04/11 06:15:17;;;;;;;10.90;8.20;;;;;;;;;;5096844;28;20204;-61
2022/04/11 06:17:43;;;;;;;17.15;9.15;;;;;;;;;;5096050;28;20212;-61
2022/04/11 06:20:10;;;;;;;16.48;8.98;;;;;;;;;;5096111;28;20199;-61
2022/04/11 06:22:37;;;;;;;12.43;8.63;;;;;;;;;;5096623;28;20279;-63
2022/04/11 06:25:05;;;;;;;12.85;9.48;;;;;;;;;;5096563;28;20208;-62
2022/04/11 06:27:32;;;;;;;13.75;8.75;;;;;;;;;;5096198;28;20208;-62
2022/04/11 06:30:00;;;;;;;10.90;8.80;;;;;;;;;;5096605;28;20551;-62
2022/04/11 06:32:27;;;;;;;11.98;7.30;;;;;;;;;;5096243;28;20230;-62
2022/04/11 06:34:53;;;;;;;15.10;8.70;;;;;;;;;;5093620;28;20211;-63
2022/04/11 06:37:19;;;;;;;13.40;9.10;;;;;;;;;;5095907;28;20252;-62
2022/04/11 06:39:45;;;;;;;12.60;8.75;;;;;;;;;;5097011;28;20275;-62
2022/04/11 06:42:13;;;;;;;16.63;9.13;;;;;;;;;;5096588;28;20215;-62
2022/04/11 06:44:39;;;;;;;9.38;8.30;;;;;;;;;;5096543;28;20215;-62
2022/04/11 06:47:08;;;;;;;13.45;8.35;;;;;;;;;;5095864;28;20704;-61
2022/04/11 06:49:34;;;;;;;10.35;8.57;;;;;;;;;;5097283;28;20232;-62
2022/04/11 06:52:01;;;;;;;9.23;8.13;;;;;;;;;;5099120;28;20204;-62
2022/04/11 06:54:27;;;;;;;12.45;8.35;;;;;;;;;;5099156;28;20207;-62
2022/04/11 06:56:53;;;;;;;11.02;8.75;;;;;;;;;;5098822;28;20230;-62
2022/04/11 06:59:20;;;;;;;13.80;9.02;;;;;;;;;;5098793;28;20212;-62
2022/04/11 07:01:46;;;;;;;14.75;8.75;;;;;;;;;;5099579;28;20448;-62
2022/04/11 07:04:14;;;;;;;11.77;8.25;;;;;;;;;;5099251;28;20212;-60
2022/04/11 07:06:40;;;;;;;10.30;8.15;;;;;;;;;;5099218;28;20230;-59
2022/04/11 07:09:06;;;;;;;10.48;8.68;;;;;;;;;;5097813;28;20284;-59
2022/04/11 07:11:33;;;;;;;11.40;8.35;;;;;;;;;;5098931;28;20231;-61
2022/04/11 07:13:59;;;;;;;11.98;7.30;;;;;;;;;;5099560;28;20204;-61
2022/04/11 07:16:25;;;;;;;9.38;7.65;;;;;;;;;;5100503;28;20210;-62
2022/04/11 07:18:51;;;;;;;9.05;7.53;;;;;;;;;;5102535;28;20208;-61
2022/04/11 07:21:19;;;;;;;7.88;6.80;;;;;;;;;;5102529;28;20245;-61
2022/04/11 07:23:45;;;;;;;6.82;5.90;;;;;;;;;;5102724;28;20204;-61
2022/04/11 07:26:12;;;;;;;16.10;10.27;;;;;;;;;;5102101;28;20203;-62
2022/04/11 07:28:39;;;;;;;15.63;9.90;;;;;;;;;;5102762;28;20219;-60
2022/04/11 07:31:05;;;;;;;10.93;7.32;;;;;;;;;;5101606;28;20430;-60
2022/04/11 07:33:32;;;;;;;7.57;5.15;;;;;;;;;;5102564;28;20204;-60
2022/04/11 07:35:58;;;;;;;9.02;6.05;;;;;;;;;;5102148;28;20204;-59
2022/04/11 07:38:26;;;;;;;5.93;4.82;;;;;;;;;;5084616;28;20208;-59
2022/04/11 07:40:52;;;;;;;8.82;4.57;;;;;;;;;;5092658;28;20200;-61
2022/04/11 07:43:19;;;;;;;4.13;3.85;;;;;;;;;;5101974;28;20203;-61
2022/04/11 07:45:45;;;;;;;5.70;3.72;;;;;;;;;;5102487;28;20249;-59
2022/04/11 07:48:11;;;;;;;4.68;3.17;;;;;;;;;;5101747;28;20214;-60
2022/04/11 07:50:37;;;;;;;4.07;2.90;;;;;;;;;;5101606;28;20230;-61
2022/04/11 07:53:04;;;;;;;4.28;3.13;;;;;;;;;;5101894;28;20210;-60
2022/04/11 07:55:33;;;;;;;4.32;3.38;;;;;;;;;;5101769;28;20271;-60
2022/04/11 07:57:59;;;;;;;3.45;3.25;;;;;;;;;;5101212;28;20204;-61
2022/04/11 08:00:26;;;;;;;3.17;2.97;;;;;;;;;;5101841;28;20542;-60
2022/04/11 08:02:52;;;;;;;3.65;3.05;;;;;;;;;;5100988;28;20547;-61
2022/04/11 08:05:19;;;;;;;3.40;3.10;;;;;;;;;;5101731;28;20223;-60
2022/04/11 08:07:46;;;;;;;2.90;2.70;;;;;;;;;;5101540;28;20270;-61
2022/04/11 08:10:12;;;;;;;4.45;2.83;;;;;;;;;;5101473;28;20465;-61
2022/04/11 08:12:39;;;;;;;3.45;2.85;;;;;;;;;;5100876;28;20399;-60
2022/04/11 08:15:06;;;;;;;7.18;3.28;;;;;;;;;;5101621;28;20511;-61
2022/04/11 08:17:33;;;;;;;2.90;2.80;;;;;;;;;;5101451;28;20537;-61
2022/04/11 08:19:59;;;;;;;3.72;2.72;;;;;;;;;;5101797;28;20216;-60
2022/04/11 08:22:25;;;;;;;2.55;2.45;;;;;;;;;;5101293;28;20245;-61
2022/04/11 08:24:51;;;;;;;3.55;3.20;;;;;;;;;;5101431;28;20256;-62
2022/04/11 08:27:18;;;;;;;2.83;2.60;;;;;;;;;;5100365;28;20196;-61
2022/04/11 08:29:45;;;;;;;3.15;2.75;;;;;;;;;;5101332;28;20212;-61
2022/04/11 08:32:12;;;;;;;2.60;2.40;;;;;;;;;;5100749;28;20210;-60
2022/04/11 08:34:38;;;;;;;4.60;2.63;;;;;;;;;;5101169;28;20204;-61
2022/04/11 08:37:05;;;;;;;3.05;2.42;;;;;;;;;;5100848;28;20204;-59
2022/04/11 08:39:31;;;;;;;3.30;2.72;;;;;;;;;;5101263;28;20218;-61
2022/04/11 08:42:00;;;;;;;2.55;2.35;;;;;;;;;;5100892;28;20612;-61
2022/04/11 08:44:27;;;;;;;2.58;2.47;;;;;;;;;;5100578;28;20511;-62
2022/04/11 08:46:55;;;;;;;5.00;2.17;;;;;;;;;;5100273;28;20229;-62
2022/04/11 08:49:21;;;;;;;2.33;2.03;;;;;;;;;;5100599;28;20253;-62
2022/04/11 08:51:48;;;;;;;2.33;2.20;;;;;;;;;;5100535;28;20250;-61
2022/04/11 08:54:15;;;;;;;2.50;2.30;;;;;;;;;;5100341;28;20211;-61
2022/04/11 08:56:41;;;;;;;2.00;1.90;;;;;;;;;;5100449;28;20444;-61
2022/04/11 08:59:07;;;;;;;1.95;1.85;;;;;;;;;;5100494;28;20668;-61
2022/04/11 09:01:34;;;;;;;2.85;2.08;;;;;;;;;;5100364;28;20402;-62
2022/04/11 09:04:01;;;;;;;4.57;2.25;;;;;;;;;;5100060;28;20207;-61
2022/04/11 09:06:31;;;;;;;2.60;2.00;;;;;;;;;;5100217;28;20223;-60
2022/04/11 09:08:58;;;;;;;3.03;1.98;;;;;;;;;;5100433;28;20203;-62
2022/04/11 09:11:28;;;;;;;2.40;2.20;;;;;;;;;;5100480;28;20568;-61
2022/04/11 09:13:54;;;;;;;2.50;2.30;;;;;;;;;;5100603;28;20208;-61
2022/04/11 09:16:20;;;;;;;1.88;1.83;;;;;;;;;;5099614;28;20253;-60
2022/04/11 09:18:48;;;;;;;1.98;1.88;;;;;;;;;;5100444;28;20210;-61
2022/04/11 09:21:15;;;;;;;3.38;1.98;;;;;;;;;;5100280;28;20199;-59
2022/04/11 09:23:42;;;;;;;2.75;2.42;;;;;;;;;;5094462;28;20372;-60
2022/04/11 09:26:18;;;;;;;3.90;2.05;;;;;;;;;;5099735;28;20291;-62
2022/04/11 09:28:44;;;;;;;2.33;2.13;;;;;;;;;;5100429;28;20404;-59
2022/04/11 09:31:11;;;;;;;2.70;2.10;;;;;;;;;;5100220;28;20423;-60
2022/04/11 09:33:40;;;;;;;3.25;1.90;;;;;;;;;;5100461;28;20499;-59
2022/04/11 09:36:06;;;;;;;1.98;1.88;;;;;;;;;;5099314;28;20241;-60
2022/04/11 09:38:37;;;;;;;1.80;1.80;;;;;;;;;;5099832;28;20399;-60
2022/04/11 09:41:04;;;;;;;4.95;1.70;;;;;;;;;;5100258;28;20212;-60
2022/04/11 09:43:30;;;;;;;2.53;1.70;;;;;;;;;;5100351;28;20211;-61
2022/04/11 09:45:59;;;;;;;2.63;1.70;;;;;;;;;;5099763;28;20214;-61
2022/04/11 09:48:26;;;;;;;3.05;1.83;;;;;;;;;;5099919;28;20254;-60
2022/04/11 09:50:52;;;;;;;1.95;1.83;;;;;;;;;;5100265;28;20405;-60
2022/04/11 09:53:19;;;;;;;1.80;1.70;;;;;;;;;;5099386;28;20207;-60
2022/04/11 09:55:48;;;;;;;6.65;1.90;;;;;;;;;;5095787;28;20203;-59
2022/04/11 09:58:14;;;;;;;1.70;1.60;;;;;;;;;;5098931;28;20430;-60
2022/04/11 10:00:42;;;;;;;2.47;1.73;;;;;;;;;;5099251;28;20208;-59
2022/04/11 10:03:08;;;;;;;2.22;2.10;;;;;;;;;;5099437;28;20212;-61
2022/04/11 10:05:35;;;;;;;1.92;1.58;;;;;;;;;;5099991;28;20231;-61
2022/04/11 10:08:03;;;;;;;3.90;2.00;;;;;;;;;;5099140;28;20214;-61
2022/04/11 10:10:30;;;;;;;1.80;1.70;;;;;;;;;;5094711;28;20207;-61
2022/04/11 10:12:58;;;;;;;1.83;1.73;;;;;;;;;;5099360;28;20204;-61
2022/04/11 10:15:24;;;;;;;3.38;2.00;;;;;;;;;;5099765;28;20204;-62
2022/04/11 10:17:51;;;;;;;2.17;1.95;;;;;;;;;;5098914;28;20208;-61
2022/04/11 10:20:24;;;;;;;2.30;1.60;;;;;;;;;;5099828;28;20209;-61
2022/04/11 10:22:54;;;;;;;2.60;1.73;;;;;;;;;;5099173;28;20210;-62
2022/04/11 10:25:21;;;;;;;2.45;1.63;;;;;;;;;;5099460;28;20203;-62
2022/04/11 10:27:47;;;;;;;1.55;1.55;;;;;;;;;;5095666;28;20218;-62
2022/04/11 10:30:28;;;;;;;2.28;1.40;;;;;;;;;;5099199;28;20212;-62
2022/04/11 10:32:55;;;;;;;1.60;1.50;;;;;;;;;;5099609;28;20222;-62
2022/04/11 10:35:31;;;;;;;2.33;1.67;;;;;;;;;;5099396;28;20211;-62
2022/04/11 10:38:05;;;;;;;1.95;1.30;;;;;;;;;;5098687;28;20207;-63
2022/04/11 10:40:31;;;;;;;1.38;1.33;;;;;;;;;;5099195;28;20210;-62
2022/04/11 10:43:13;;;;;;;1.67;1.58;;;;;;;;;;5099566;28;20577;-62
2022/04/11 10:45:42;;;;;;;1.30;1.30;;;;;;;;;;5099350;28;20211;-62
2022/04/11 10:48:09;;;;;;;2.65;1.15;;;;;;;;;;5097831;28;20325;-62
2022/04/11 10:50:35;;;;;;;1.33;1.33;;;;;;;;;;5096523;28;20212;-62
2022/04/11 10:53:09;;;;;;;1.60;1.50;;;;;;;;;;5100255;28;20565;-62
2022/04/11 10:55:36;;;;;;;1.52;1.52;;;;;;;;;;5100142;28;20527;-62
2022/04/11 10:58:03;;;;;;;2.55;1.67;;;;;;;;;;5100988;28;20207;-61
2022/04/11 11:00:30;;;;;;;2.92;1.30;;;;;;;;;;5099858;28;20223;-63
2022/04/11 11:03:13;;;;;;;1.58;1.48;;;;;;;;;;5100198;28;20211;-63
2022/04/11 11:05:41;;;;;;;3.53;1.45;;;;;;;;;;5099862;28;20223;-63
2022/04/11 11:08:49;;;;;;;1.65;1.52;;;;;;;;;;5096110;28;20211;-63
2022/04/11 11:11:20;;;;;;;3.63;1.50;;;;;;;;;;5030866;28;20578;-63
2022/04/11 11:13:46;;;;;;;1.88;1.73;;;;;;;;;;5037179;28;20214;-61
2022/04/11 11:16:26;;;;;;;1.70;1.52;;;;;;;;;;5069172;28;20207;-61
2022/04/11 11:19:13;;;;;;;4.60;2.03;;;;;;;;;;5099870;28;20203;-61
2022/04/11 11:21:58;;;;;;;1.60;1.55;;;;;;;;;;5099538;28;20207;-61
2022/04/11 11:24:25;;;;;;;2.22;1.60;;;;;;;;;;5099569;28;20253;-62
2022/04/11 11:26:53;;;;;;;1.20;1.10;;;;;;;;;;5098963;28;20207;-60
2022/04/11 11:29:20;;;;;;;2.55;1.40;;;;;;;;;;5099824;28;20511;-61
2022/04/11 11:31:47;;;;;;;1.63;1.50;;;;;;;;;;5099192;28;20277;-59
2022/04/11 11:34:15;;;;;;;1.38;1.35;;;;;;;;;;5099621;28;20211;-61
2022/04/11 11:36:42;;;;;;;1.67;1.38;;;;;;;;;;5098611;28;20445;-62
2022/04/11 11:39:12;;;;;;;1.45;1.40;;;;;;;;;;5099413;28;20207;-60
2022/04/11 11:41:42;;;;;;;1.85;1.70;;;;;;;;;;5098843;28;20215;-61
2022/04/11 11:44:08;;;;;;;1.60;1.50;;;;;;;;;;5099299;28;20222;-61
2022/04/11 11:46:45;;;;;;;2.03;1.70;;;;;;;;;;5098585;28;20212;-60
2022/04/11 11:49:11;;;;;;;2.03;1.88;;;;;;;;;;5098939;28;20229;-60
2022/04/11 11:51:39;;;;;;;4.05;1.80;;;;;;;;;;5095750;28;20235;-60
2022/04/11 11:54:05;;;;;;;2.08;1.75;;;;;;;;;;5099212;28;20218;-61
2022/04/11 11:56:39;;;;;;;3.63;1.90;;;;;;;;;;5098409;28;20265;-60
2022/04/11 11:59:05;;;;;;;2.40;1.90;;;;;;;;;;5098735;28;20318;-61
2022/04/11 12:01:32;;;;;;;1.45;1.33;;;;;;;;;;5098352;28;20444;-61
2022/04/11 12:06:43;;;;;;;1.60;1.50;;;;;;;;;;5098309;28;20298;-61
2022/04/11 12:09:09;;;;;;;1.60;1.50;;;;;;;;;;5099310;28;20216;-60
2022/04/11 12:11:36;;;;;;;1.60;1.50;;;;;;;;;;5099002;28;20269;-60
2022/04/11 12:14:03;;;;;;;1.50;1.40;;;;;;;;;;5098683;28;20231;-60
2022/04/11 12:16:30;;;;;;;1.60;1.50;;;;;;;;;;5097958;28;20243;-60
2022/04/11 12:18:57;;;;;;;2.72;1.77;;;;;;;;;;5095231;28;20215;-61
2022/04/11 12:21:30;;;;;;;1.83;1.73;;;;;;;;;;5099032;28;20206;-61
2022/04/11 12:23:58;;;;;;;3.70;1.70;;;;;;;;;;5088548;28;20212;-61
2022/04/11 12:26:25;;;;;;;2.72;1.70;;;;;;;;;;5098179;28;20438;-61
2022/04/11 12:28:51;;;;;;;4.53;1.90;;;;;;;;;;5098804;28;20215;-63
2022/04/11 12:31:18;;;;;;;1.70;1.60;;;;;;;;;;5098298;28;20227;-62
2022/04/11 12:33:46;;;;;;;1.83;1.70;;;;;;;;;;5098192;28;20219;-61
2022/04/11 12:36:13;;;;;;;3.05;2.25;;;;;;;;;;5097497;28;20388;-62
2022/04/11 12:38:43;;;;;;;2.08;1.98;;;;;;;;;;5098207;28;20207;-62
2022/04/11 12:41:25;;;;;;;2.25;2.05;;;;;;;;;;5098136;28;20487;-62
2022/04/11 12:44:01;;;;;;;1.98;1.88;;;;;;;;;;5098263;28;20422;-62
2022/04/11 12:46:27;;;;;;;2.28;2.17;;;;;;;;;;5097447;28;20446;-62
2022/04/11 12:48:56;;;;;;;2.03;1.92;;;;;;;;;;5098059;28;20208;-62
2022/04/11 12:51:23;;;;;;;2.28;2.10;;;;;;;;;;5098036;28;20227;-63
2022/04/11 12:53:49;;;;;;;2.00;1.90;;;;;;;;;;5098245;28;20208;-62
2022/04/11 12:56:15;;;;;;;3.13;1.85;;;;;;;;;;5097083;28;20218;-62
2022/04/11 12:58:43;;;;;;;2.10;1.85;;;;;;;;;;5098112;28;20527;-62
2022/04/11 13:01:09;;;;;;;2.30;1.90;;;;;;;;;;5097800;28;20551;-62
2022/04/11 13:03:35;;;;;;;2.38;2.28;;;;;;;;;;5097940;28;20204;-61
2022/04/11 13:06:04;;;;;;;2.10;2.00;;;;;;;;;;5097019;28;20235;-62
2022/04/11 13:08:30;;;;;;;2.30;2.20;;;;;;;;;;5097837;28;20246;-61
2022/04/11 13:10:58;;;;;;;2.40;2.20;;;;;;;;;;5097651;28;20279;-61
2022/04/11 13:13:25;;;;;;;2.33;2.22;;;;;;;;;;5096769;28;20224;-61
2022/04/11 13:18:37;;;;;;;4.28;2.17;;;;;;;;;;5097455;28;20467;-60
2022/04/11 13:21:03;;;;;;;2.10;2.00;;;;;;;;;;5097121;28;20530;-62
2022/04/11 13:23:29;;;;;;;2.63;2.45;;;;;;;;;;5097281;28;20203;-62
2022/04/11 13:25:55;;;;;;;4.38;2.15;;;;;;;;;;5096705;28;20215;-62
2022/04/11 13:28:23;;;;;;;3.95;2.40;;;;;;;;;;5097036;28;20527;-62
2022/04/11 13:30:49;;;;;;;2.90;2.35;;;;;;;;;;5097222;28;20538;-62
2022/04/11 13:33:18;;;;;;;2.22;2.00;;;;;;;;;;5096874;28;20554;-62
2022/04/11 13:35:44;;;;;;;4.63;2.47;;;;;;;;;;5096710;28;20621;-62
2022/04/11 13:38:11;;;;;;;4.53;2.50;;;;;;;;;;5096634;28;20577;-62
2022/04/11 13:40:37;;;;;;;2.30;2.10;;;;;;;;;;5097539;28;20283;-62
2022/04/11 13:43:03;;;;;;;2.45;2.35;;;;;;;;;;5097086;28;20219;-62
2022/04/11 13:45:30;;;;;;;2.10;2.00;;;;;;;;;;5096936;28;20215;-62
2022/04/11 13:47:56;;;;;;;2.63;2.47;;;;;;;;;;5096021;28;20370;-62
2022/04/11 13:50:24;;;;;;;2.95;2.30;;;;;;;;;;5096956;28;20268;-62
2022/04/11 13:52:50;;;;;;;3.10;2.40;;;;;;;;;;5096866;28;20227;-62
2022/04/11 13:55:16;;;;;;;2.25;2.00;;;;;;;;;;5096747;28;20207;-62
2022/04/11 13:57:42;;;;;;;2.28;2.15;;;;;;;;;;5095842;28;20219;-63
2022/04/11 14:00:09;;;;;;;2.40;2.30;;;;;;;;;;5096478;28;20538;-62
2022/04/11 14:02:36;;;;;;;1.63;1.52;;;;;;;;;;5096727;28;20207;-62
2022/04/11 14:05:02;;;;;;;1.90;1.80;;;;;;;;;;5096732;28;20418;-62
2022/04/11 14:07:30;;;;;;;2.60;2.40;;;;;;;;;;5095975;28;20208;-61
2022/04/11 14:09:56;;;;;;;3.60;2.20;;;;;;;;;;5095844;28;20214;-63
2022/04/11 14:12:22;;;;;;;2.50;2.28;;;;;;;;;;5095912;28;20457;-62
2022/04/11 14:14:48;;;;;;;3.00;2.80;;;;;;;;;;5095929;28;20409;-60
2022/04/11 14:17:14;;;;;;;2.33;2.13;;;;;;;;;;5094948;28;20448;-61
2022/04/11 14:19:41;;;;;;;2.58;2.40;;;;;;;;;;5095513;28;20519;-60
2022/04/11 14:22:07;;;;;;;2.80;2.60;;;;;;;;;;5095912;28;20511;-61
2022/04/11 14:24:35;;;;;;;2.83;2.63;;;;;;;;;;5096355;28;20393;-61
2022/04/11 14:27:01;;;;;;;2.55;2.35;;;;;;;;;;5099497;28;20211;-61
2022/04/11 14:29:28;;;;;;;2.83;2.63;;;;;;;;;;5100134;28;20211;-61
2022/04/11 14:31:55;;;;;;;2.70;2.60;;;;;;;;;;5100048;28;20614;-61
2022/04/11 14:34:22;;;;;;;2.70;2.60;;;;;;;;;;5100122;28;20587;-61
2022/04/11 14:36:48;;;;;;;3.20;2.90;;;;;;;;;;5099339;28;20199;-59
2022/04/11 14:39:14;;;;;;;2.58;2.50;;;;;;;;;;5099580;28;20211;-61
2022/04/11 14:41:42;;;;;;;2.88;2.30;;;;;;;;;;5099952;28;20214;-61
2022/04/11 14:44:08;;;;;;;2.35;2.15;;;;;;;;;;5099591;28;20208;-61
2022/04/11 14:46:35;;;;;;;2.30;2.20;;;;;;;;;;5098825;28;20216;-61